Time,TemperatureF,DewpointF,PressureIn,WindDirection,WindDirectionDegrees,WindSpeedMPH,WindSpeedGustMPH,Humidity,HourlyPrecipIn,Conditions,Clouds,dailyrainin,SolarRadiationWatts/m^2,SoftwareType,DateUTC
2013-07-15 00:01:00,69.0,36.0,-100.00,East,88,3.0,5.0,30,0.00,,,0.00,0.000000,,2013-07-15 07:01:00,
2013-07-15 00:33:00,69.0,37.0,-100.00,ESE,105,3.0,4.0,31,0.00,,,0.00,0.000000,,2013-07-15 07:33:00,
2013-07-15 00:44:00,69.0,37.0,-100.00,ESE,105,3.0,4.0,31,0.00,,,0.00,0.000000,,2013-07-15 07:44:00,
2013-07-15 00:53:00,69.0,37.0,-100.00,ESE,105,3.0,4.0,31,0.00,,,0.00,0.000000,,2013-07-15 07:53:00,
2013-07-15 01:01:00,69.0,37.0,-100.00,ESE,105,3.0,4.0,31,0.00,,,0.00,0.000000,,2013-07-15 08:01:00,
2013-07-15 01:32:00,69.0,36.0,-100.00,ENE,70,3.0,5.0,30,0.00,,,0.00,0.000000,,2013-07-15 08:32:00,
2013-07-15 01:43:00,69.0,36.0,-100.00,ENE,70,3.0,5.0,30,0.00,,,0.00,0.000000,,2013-07-15 08:43:00,
2013-07-15 01:53:00,69.0,36.0,-100.00,ENE,70,3.0,5.0,30,0.00,,,0.00,0.000000,,2013-07-15 08:53:00,
2013-07-15 02:01:00,69.0,36.0,-100.00,ENE,70,3.0,5.0,30,0.00,,,0.00,0.000000,,2013-07-15 09:01:00,
2013-07-15 02:02:00,67.0,38.0,-100.00,NE,40,1.0,4.0,34,0.00,,,-99.99,0.000000,,2013-07-15 09:02:00,
2013-07-15 02:22:00,67.0,38.0,-100.00,NE,40,1.0,4.0,34,0.00,,,-99.99,0.000000,,2013-07-15 09:22:00,
2013-07-15 02:32:00,67.0,38.0,-100.00,NE,40,1.0,4.0,34,0.00,,,-99.99,0.000000,,2013-07-15 09:32:00,
2013-07-15 02:43:00,67.0,38.0,-100.00,NE,40,1.0,4.0,34,0.00,,,-99.99,0.000000,,2013-07-15 09:43:00,
2013-07-15 02:52:00,67.0,38.0,-100.00,NE,40,1.0,4.0,34,0.00,,,-99.99,0.000000,,2013-07-15 09:52:00,
2013-07-15 03:22:00,65.0,37.0,-100.00,East,90,3.0,4.0,36,0.00,,,0.00,0.000000,,2013-07-15 10:22:00,
2013-07-15 03:32:00,65.0,37.0,-100.00,East,90,3.0,4.0,36,0.00,,,0.00,0.000000,,2013-07-15 10:32:00,
2013-07-15 03:43:00,65.0,37.0,-100.00,East,90,3.0,4.0,36,0.00,,,0.00,0.000000,,2013-07-15 10:43:00,
2013-07-15 03:53:00,65.0,37.0,-100.00,East,90,3.0,4.0,36,0.00,,,0.00,0.000000,,2013-07-15 10:53:00,
2013-07-15 04:01:00,65.0,37.0,-100.00,East,90,3.0,4.0,36,0.00,,,0.00,0.000000,,2013-07-15 11:01:00,
2013-07-15 04:22:00,67.0,38.0,-100.00,ESE,112,2.0,4.0,35,0.00,,,-99.99,0.000000,,2013-07-15 11:22:00,
2013-07-15 04:32:00,67.0,38.0,-100.00,ESE,112,2.0,4.0,35,0.00,,,-99.99,0.000000,,2013-07-15 11:32:00,
2013-07-15 04:42:00,67.0,38.0,-100.00,ESE,112,2.0,4.0,35,0.00,,,-99.99,0.000000,,2013-07-15 11:42:00,
2013-07-15 04:52:00,67.0,38.0,-100.00,ESE,112,2.0,4.0,35,0.00,,,-99.99,0.000000,,2013-07-15 11:52:00,
2013-07-15 05:01:00,67.0,38.0,-100.00,ESE,112,2.0,4.0,35,0.00,,,-99.99,0.000000,,2013-07-15 12:01:00,
2013-07-15 05:22:00,67.0,38.0,-100.00,ESE,115,2.0,4.0,35,0.00,,,0.00,0.000000,,2013-07-15 12:22:00,
2013-07-15 05:33:00,67.0,38.0,-100.00,ESE,115,2.0,4.0,35,0.00,,,0.00,0.000000,,2013-07-15 12:33:00,
2013-07-15 05:42:00,67.0,38.0,-100.00,ESE,115,2.0,4.0,35,0.00,,,0.00,0.000000,,2013-07-15 12:42:00,
2013-07-15 05:52:00,67.0,38.0,-100.00,ESE,115,2.0,4.0,35,0.00,,,0.00,0.000000,,2013-07-15 12:52:00,
2013-07-15 06:01:00,67.0,38.0,-100.00,ESE,115,2.0,4.0,35,0.00,,,0.00,0.000000,,2013-07-15 13:01:00,
2013-07-15 06:02:00,66.0,38.0,-100.00,East,91,2.0,4.0,36,0.00,,,0.00,2.000000,,2013-07-15 13:02:00,
2013-07-15 06:33:00,66.0,38.0,-100.00,East,91,2.0,4.0,36,0.00,,,0.00,2.000000,,2013-07-15 13:33:00,
2013-07-15 06:43:00,66.0,38.0,-100.00,East,91,2.0,4.0,36,0.00,,,0.00,2.000000,,2013-07-15 13:43:00,
2013-07-15 06:53:00,66.0,38.0,-100.00,East,91,2.0,4.0,36,0.00,,,0.00,2.000000,,2013-07-15 13:53:00,
2013-07-15 07:02:00,72.0,44.0,-100.00,East,90,2.0,4.0,36,0.00,,,0.00,68.000000,,2013-07-15 14:02:00,
2013-07-15 07:33:00,72.0,44.0,-100.00,East,90,2.0,4.0,36,0.00,,,0.00,68.000000,,2013-07-15 14:33:00,
2013-07-15 07:42:00,72.0,44.0,-100.00,East,90,2.0,4.0,36,0.00,,,0.00,68.000000,,2013-07-15 14:42:00,
2013-07-15 07:58:00,72.0,44.0,-100.00,East,90,2.0,4.0,36,0.00,,,0.00,68.000000,,2013-07-15 14:58:00,
2013-07-15 08:02:00,78.0,39.0,-100.00,SW,214,3.0,5.0,25,0.00,,,0.00,261.000000,,2013-07-15 15:02:00,
2013-07-15 08:40:00,78.0,39.0,-100.00,SW,214,3.0,5.0,25,0.00,,,0.00,261.000000,,2013-07-15 15:40:00,
2013-07-15 08:53:00,78.0,39.0,-100.00,SW,214,3.0,5.0,25,0.00,,,0.00,261.000000,,2013-07-15 15:53:00,
2013-07-15 09:02:00,81.0,40.0,-100.00,SW,232,5.0,7.0,23,0.00,,,0.00,492.000000,,2013-07-15 16:02:00,
2013-07-15 09:33:00,81.0,40.0,-100.00,SW,232,5.0,7.0,23,0.00,,,0.00,492.000000,,2013-07-15 16:33:00,
2013-07-15 09:47:00,81.0,40.0,-100.00,SW,232,5.0,7.0,23,0.00,,,0.00,492.000000,,2013-07-15 16:47:00,
2013-07-15 10:36:00,84.0,39.0,-100.00,SW,214,5.0,10.0,20,0.00,,,0.00,717.000000,,2013-07-15 17:36:00,
2013-07-15 10:50:00,84.0,39.0,-100.00,SW,214,5.0,10.0,20,0.00,,,0.00,717.000000,,2013-07-15 17:50:00,
2013-07-15 10:57:00,84.0,39.0,-100.00,SW,214,5.0,10.0,20,0.00,,,0.00,717.000000,,2013-07-15 17:57:00,
2013-07-15 11:02:00,86.0,43.0,-100.00,SE,125,9.0,15.0,22,0.00,,,0.00,903.000000,,2013-07-15 18:02:00,
2013-07-15 11:45:00,86.0,43.0,-100.00,SE,125,9.0,15.0,22,0.00,,,0.00,903.000000,,2013-07-15 18:45:00,
2013-07-15 11:57:00,86.0,43.0,-100.00,SE,125,9.0,15.0,22,0.00,,,0.00,903.000000,,2013-07-15 18:57:00,
2013-07-15 13:02:00,83.0,47.0,-100.00,SSE,150,11.0,20.0,28,0.00,,,0.00,1099.000000,,2013-07-15 20:02:00,
2013-07-15 13:29:00,83.0,47.0,-100.00,SSE,150,11.0,20.0,28,0.00,,,0.00,1099.000000,,2013-07-15 20:29:00,
2013-07-15 13:37:00,83.0,47.0,-100.00,SSE,150,11.0,20.0,28,0.00,,,0.00,1099.000000,,2013-07-15 20:37:00,
2013-07-15 13:43:00,83.0,47.0,-100.00,SSE,150,11.0,20.0,28,0.00,,,0.00,1099.000000,,2013-07-15 20:43:00,
2013-07-15 14:23:00,81.0,45.0,-100.00,SE,143,14.0,24.0,28,0.00,,,0.00,1109.000000,,2013-07-15 21:23:00,
2013-07-15 14:40:00,81.0,45.0,-100.00,SE,143,14.0,24.0,28,0.00,,,0.00,1109.000000,,2013-07-15 21:40:00,
2013-07-15 14:48:00,81.0,45.0,-100.00,SE,143,14.0,24.0,28,0.00,,,0.00,1109.000000,,2013-07-15 21:48:00,
2013-07-15 15:02:00,81.0,48.0,-100.00,SE,143,14.0,24.0,32,0.00,,,0.00,1059.000000,,2013-07-15 22:02:00,
2013-07-15 15:44:00,81.0,48.0,-100.00,SE,143,14.0,24.0,32,0.00,,,0.00,1059.000000,,2013-07-15 22:44:00,
2013-07-15 15:54:00,81.0,48.0,-100.00,SE,143,14.0,24.0,32,0.00,,,0.00,1059.000000,,2013-07-15 22:54:00,
2013-07-15 16:02:00,80.0,47.0,-100.00,SE,146,13.0,22.0,31,0.00,,,0.00,940.000000,,2013-07-15 23:02:00,
2013-07-15 16:40:00,80.0,47.0,-100.00,SE,146,13.0,22.0,31,0.00,,,0.00,940.000000,,2013-07-15 23:40:00,
2013-07-15 16:48:00,80.0,47.0,-100.00,SE,146,13.0,22.0,31,0.00,,,0.00,940.000000,,2013-07-15 23:48:00,
2013-07-15 16:54:00,80.0,47.0,-100.00,SE,146,13.0,22.0,31,0.00,,,0.00,940.000000,,2013-07-15 23:54:00,
2013-07-15 17:02:00,77.0,46.0,-100.00,SE,139,14.0,24.0,33,0.00,,,0.00,764.000000,,2013-07-16 00:02:00,
2013-07-15 17:34:00,77.0,46.0,-100.00,SE,139,14.0,24.0,33,0.00,,,0.00,764.000000,,2013-07-16 00:34:00,
2013-07-15 17:49:00,77.0,46.0,-100.00,SE,139,14.0,24.0,33,0.00,,,0.00,764.000000,,2013-07-16 00:49:00,
2013-07-15 18:02:00,75.0,46.0,-100.00,SSE,147,12.0,21.0,36,0.00,,,0.00,551.000000,,2013-07-16 01:02:00,
2013-07-15 18:38:00,75.0,46.0,-100.00,SSE,147,12.0,21.0,36,0.00,,,0.00,551.000000,,2013-07-16 01:38:00,
2013-07-15 18:49:00,75.0,46.0,-100.00,SSE,147,12.0,21.0,36,0.00,,,0.00,551.000000,,2013-07-16 01:49:00,
2013-07-15 18:59:00,75.0,46.0,-100.00,SSE,147,12.0,21.0,36,0.00,,,0.00,551.000000,,2013-07-16 01:59:00,
2013-07-15 19:02:00,73.0,43.0,-100.00,SSE,147,11.0,18.0,34,0.00,,,0.00,318.000000,,2013-07-16 02:02:00,
2013-07-15 19:35:00,73.0,43.0,-100.00,SSE,147,11.0,18.0,34,0.00,,,0.00,318.000000,,2013-07-16 02:35:00,
2013-07-15 19:54:00,73.0,43.0,-100.00,SSE,147,11.0,18.0,34,0.00,,,0.00,318.000000,,2013-07-16 02:54:00,
2013-07-15 20:29:00,71.0,40.0,-100.00,SSE,159,13.0,20.0,33,0.00,,,0.00,91.000000,,2013-07-16 03:29:00,
2013-07-15 20:40:00,71.0,40.0,-100.00,SSE,159,13.0,20.0,33,0.00,,,0.00,91.000000,,2013-07-16 03:40:00,
2013-07-15 20:48:00,71.0,40.0,-100.00,SSE,159,13.0,20.0,33,0.00,,,0.00,91.000000,,2013-07-16 03:48:00,
2013-07-15 20:57:00,71.0,40.0,-100.00,SSE,159,13.0,20.0,33,0.00,,,0.00,91.000000,,2013-07-16 03:57:00,
2013-07-15 21:01:00,71.0,40.0,-100.00,SSE,159,13.0,20.0,33,0.00,,,0.00,91.000000,,2013-07-16 04:01:00,